This is the latest recevied weather packets stored in our database for station/object IW4EMA-3. If no packets are shown the sender has not sent any weather packets the latest 10 day(s).
| Time | Temp. | Humidity | Pressure | Rain* | Wind** | Luminosity | Snow |
|---|---|---|---|---|---|---|---|
| 1777242204 | 17.22° C | 83% | 1017.1 hPa | 0 mm | - | 0 W/m² | - |
| 1777241025 | 17.22° C | 83% | 1017 hPa | 0 mm | - | 0 W/m² | - |
| 1777240411 | 17.22° C | 82% | 1017 hPa | 0 mm | - | 0 W/m² | - |
| 1777233805 | 19.44° C | 76% | 1016.7 hPa | 0 mm | - | 0 W/m² | - |
| 1777230812 | 20.56° C | 70% | 1016.2 hPa | 0 mm | - | 0 W/m² | - |
| 1777225996 | 24.44° C | 52% | 1015.4 hPa | 0 mm | - | 9 W/m² | - |
| 1777225405 | 25° C | 50% | 1015.3 hPa | 0 mm | - | 16 W/m² | - |
| 1777224796 | 25° C | 50% | 1015.4 hPa | 0 mm | - | 24 W/m² | - |
| 1777223025 | 25.56° C | 46% | 1015.3 hPa | 0 mm | - | 45 W/m² | - |
| 1777220605 | 26.11° C | 44% | 1015.3 hPa | 0 mm | - | 56 W/m² | - |
| 1777219997 | 26.67° C | 44% | 1015.3 hPa | 0 mm | - | 53 W/m² | - |
| 1777212797 | 26.67° C | 47% | 1015.8 hPa | 0 mm | - | 384 W/m² | - |
| 1777211612 | 27.78° C | 47% | 1016 hPa | 0 mm | - | 422 W/m² | - |
| 1777210397 | 27.22° C | 47% | 1016 hPa | 0 mm | - | 465 W/m² | - |
| 1777209216 | 27.22° C | 49% | 1016.2 hPa | 0 mm | - | 507 W/m² | - |
| 1777203197 | 25.56° C | 53% | 1016.6 hPa | 0 mm | - | 612 W/m² | - |
| 1777201404 | 25.56° C | 52% | 1017 hPa | 0 mm | - | 625 W/m² | - |
| 1777199005 | 25° C | 56% | 1017.1 hPa | 0 mm | - | 609 W/m² | - |
| 1777198397 | 24.44° C | 55% | 1017.1 hPa | 0 mm | - | 608 W/m² | - |
| 1777191806 | 21.11° C | 67% | 1017 hPa | 0 mm | - | 457 W/m² | - |
| 1777190605 | 20.56° C | 69% | 1017 hPa | 0 mm | - | 415 W/m² | - |
| 1777189997 | 20.56° C | 68% | 1016.9 hPa | 0 mm | - | 393 W/m² | - |
| 1777189405 | 20° C | 73% | 1016.9 hPa | 0 mm | - | 369 W/m² | - |
| 1777187617 | 18.89° C | 73% | 1016.6 hPa | 0 mm | - | 297 W/m² | - |
| 1777179197 | 12.22° C | 86% | 1015.4 hPa | 0 mm | - | 32 W/m² | - |
* Rain latest hour (hover to see other rain measurements)
** Current wind speed in m/s (hover to see current wind gust speed)